createdAt,value
2022-10-28T00:02:46.973Z,13.60
2022-10-28T00:05:48.654Z,13.56
2022-10-28T00:08:50.980Z,13.51
2022-10-28T00:11:52.497Z,13.47
2022-10-28T00:14:54.064Z,13.43
2022-10-28T00:17:55.978Z,13.38
2022-10-28T00:21:02.968Z,13.32
2022-10-28T00:24:06.555Z,13.28
2022-10-28T00:27:08.093Z,13.24
2022-10-28T00:30:10.084Z,13.21
2022-10-28T00:33:11.632Z,13.17
2022-10-28T00:36:21.257Z,13.13
2022-10-28T00:39:25.097Z,13.07
2022-10-28T00:42:26.641Z,13.00
2022-10-28T00:45:28.350Z,12.95
2022-10-28T00:48:30.253Z,12.94
2022-10-28T00:51:35.684Z,12.93
2022-10-28T00:54:38.460Z,12.90
2022-10-28T00:57:42.407Z,12.87
2022-10-28T01:00:43.983Z,12.85
2022-10-28T01:03:45.544Z,12.85
2022-10-28T01:06:48.065Z,12.84
2022-10-28T01:09:50.336Z,12.82
2022-10-28T01:13:12.161Z,12.80
2022-10-28T01:16:55.275Z,12.79
2022-10-28T01:20:15.608Z,12.73
2022-10-28T01:23:50.760Z,12.72
2022-10-28T01:27:13.866Z,12.70
2022-10-28T01:30:23.361Z,12.68
2022-10-28T01:33:32.071Z,12.69
2022-10-28T01:36:54.008Z,12.69
2022-10-28T01:40:08.901Z,12.69
2022-10-28T01:43:10.379Z,12.65
2022-10-28T01:46:17.577Z,12.64
2022-10-28T01:49:28.008Z,12.60
2022-10-28T01:52:32.063Z,12.55
2022-10-28T01:55:38.248Z,12.52
2022-10-28T01:58:41.511Z,12.49
2022-10-28T02:01:43.210Z,12.47
2022-10-28T02:04:44.890Z,12.43
2022-10-28T02:07:47.636Z,12.39
2022-10-28T02:11:01.896Z,12.34
2022-10-28T02:14:21.672Z,12.30
2022-10-28T02:17:51.084Z,12.22
2022-10-28T02:21:18.421Z,12.10
2022-10-28T02:24:26.467Z,12.04
2022-10-28T02:27:31.456Z,12.00
2022-10-28T02:30:41.529Z,11.97
2022-10-28T02:33:47.188Z,11.94
2022-10-28T02:36:54.590Z,11.89
2022-10-28T02:40:00.055Z,11.88
2022-10-28T02:43:06.686Z,11.88
2022-10-28T02:46:10.023Z,11.88
2022-10-28T02:49:14.179Z,11.90
2022-10-28T02:52:17.861Z,11.91
2022-10-28T02:55:22.715Z,11.92
2022-10-28T02:58:24.301Z,11.93
2022-10-28T03:01:26.145Z,11.94
2022-10-28T03:04:27.756Z,11.92
2022-10-28T03:07:29.288Z,11.92
2022-10-28T03:10:30.822Z,11.87
2022-10-28T03:13:32.320Z,11.83
2022-10-28T03:16:34.020Z,11.81
2022-10-28T03:19:35.536Z,11.82
2022-10-28T03:22:37.328Z,11.82
2022-10-28T03:25:38.945Z,11.82
2022-10-28T03:28:40.509Z,11.82
2022-10-28T03:31:42.114Z,11.81
2022-10-28T03:34:44.931Z,11.80
2022-10-28T03:37:46.480Z,11.77
2022-10-28T03:40:49.119Z,11.77
2022-10-28T03:43:50.644Z,11.77
2022-10-28T03:46:52.210Z,11.78
2022-10-28T03:49:53.779Z,11.80
2022-10-28T03:52:55.317Z,11.82
2022-10-28T03:55:59.292Z,11.82
2022-10-28T03:59:00.798Z,11.80
2022-10-28T04:02:02.416Z,11.79
2022-10-28T04:05:04.272Z,11.77
2022-10-28T04:08:05.867Z,11.75
2022-10-28T04:11:07.426Z,11.70
2022-10-28T04:14:08.992Z,11.66
2022-10-28T04:17:10.549Z,11.61
2022-10-28T04:20:12.255Z,11.56
2022-10-28T04:23:16.123Z,11.53
2022-10-28T04:26:17.683Z,11.51
2022-10-28T04:29:19.620Z,11.50
2022-10-28T04:32:21.125Z,11.46
2022-10-28T04:35:23.513Z,11.44
2022-10-28T04:41:31.604Z,11.37
2022-10-28T04:44:33.133Z,11.34
2022-10-28T04:47:34.772Z,11.32
2022-10-28T04:50:36.411Z,11.28
2022-10-28T04:53:37.921Z,11.25
2022-10-28T04:56:39.488Z,11.24
2022-10-28T04:59:41.099Z,11.22
2022-10-28T05:02:45.998Z,11.22
2022-10-28T05:05:48.608Z,11.19
2022-10-28T05:08:50.392Z,11.15
2022-10-28T05:11:52.076Z,11.10
2022-10-28T05:14:53.651Z,11.06
2022-10-28T05:17:55.515Z,11.01
2022-10-28T05:20:57.359Z,11.01
2022-10-28T05:23:58.932Z,11.02
2022-10-28T05:27:00.922Z,11.03
2022-10-28T05:30:02.516Z,11.21
2022-10-28T05:33:04.660Z,11.22
2022-10-28T05:36:06.590Z,11.23
2022-10-28T05:39:08.141Z,11.25
2022-10-28T05:42:09.701Z,11.37
2022-10-28T05:45:11.967Z,11.42
2022-10-28T05:48:13.466Z,11.46
2022-10-28T05:54:07.329Z,11.47
2022-10-28T05:57:20.681Z,11.45
2022-10-28T06:00:24.988Z,11.44
2022-10-28T06:03:30.146Z,11.41
2022-10-28T06:06:33.426Z,11.35
2022-10-28T06:09:35.009Z,11.31
2022-10-28T06:12:35.259Z,11.27
2022-10-28T06:15:36.802Z,11.26
2022-10-28T06:18:38.364Z,11.25
2022-10-28T06:21:39.929Z,11.26
2022-10-28T06:24:41.475Z,11.31
2022-10-28T06:27:43.005Z,11.38
2022-10-28T06:30:44.557Z,11.55
2022-10-28T06:33:46.128Z,11.54
2022-10-28T06:36:47.783Z,11.51
2022-10-28T06:39:51.429Z,11.50
2022-10-28T06:43:00.680Z,11.49
2022-10-28T06:46:04.043Z,11.45
2022-10-28T06:49:09.061Z,11.41
2022-10-28T06:52:10.644Z,11.41
2022-10-28T06:55:12.175Z,11.41
2022-10-28T06:58:13.696Z,11.43
2022-10-28T07:01:15.309Z,11.43
2022-10-28T07:04:16.864Z,11.44
2022-10-28T07:07:18.463Z,11.43
2022-10-28T07:10:19.967Z,11.43
2022-10-28T07:13:21.518Z,11.43
2022-10-28T07:16:23.049Z,11.48
2022-10-28T07:19:24.582Z,11.56
2022-10-28T07:22:26.283Z,11.63
2022-10-28T07:25:31.187Z,11.67
2022-10-28T07:28:32.716Z,11.68
2022-10-28T07:31:34.290Z,11.73
2022-10-28T07:34:35.876Z,11.76
2022-10-28T07:37:39.060Z,11.82
2022-10-28T07:40:40.801Z,11.87
2022-10-28T07:43:42.346Z,11.94
2022-10-28T07:46:43.890Z,12.01
2022-10-28T07:49:45.438Z,12.19
2022-10-28T07:52:46.990Z,12.45
2022-10-28T07:55:58.440Z,12.58
2022-10-28T07:59:00.750Z,12.65
2022-10-28T08:02:02.980Z,12.71
2022-10-28T08:05:05.159Z,12.75
2022-10-28T08:08:06.847Z,12.81
2022-10-28T08:11:13.161Z,12.86
2022-10-28T08:14:14.888Z,12.91
2022-10-28T08:17:16.583Z,12.98
2022-10-28T08:20:18.174Z,13.03
2022-10-28T08:23:19.664Z,13.09
2022-10-28T08:26:22.121Z,13.15
2022-10-28T08:29:28.994Z,13.21
2022-10-28T08:32:31.659Z,13.28
2022-10-28T08:35:35.584Z,13.37
2022-10-28T08:38:39.564Z,13.46
2022-10-28T08:42:08.002Z,13.52
2022-10-28T08:45:18.917Z,13.58
2022-10-28T08:48:31.631Z,13.64
2022-10-28T08:51:45.967Z,13.73
2022-10-28T08:55:16.926Z,13.83
2022-10-28T08:58:30.900Z,13.92
2022-10-28T09:01:45.210Z,14.01
2022-10-28T09:04:47.097Z,14.11
2022-10-28T09:07:49.467Z,14.24
2022-10-28T09:10:53.760Z,14.38
2022-10-28T09:14:10.282Z,14.52
2022-10-28T09:17:14.642Z,14.64
2022-10-28T09:20:46.299Z,14.78
2022-10-28T09:23:56.573Z,14.92
2022-10-28T09:27:07.447Z,15.04
2022-10-28T09:30:31.111Z,15.17
2022-10-28T09:33:35.590Z,15.27
2022-10-28T09:36:42.832Z,15.37
2022-10-28T09:39:49.661Z,15.50
2022-10-28T09:43:16.845Z,15.64
2022-10-28T09:46:18.993Z,15.76
2022-10-28T09:49:33.425Z,15.91
2022-10-28T09:52:51.092Z,16.05
2022-10-28T09:55:52.943Z,16.21
2022-10-28T09:58:57.691Z,16.37
2022-10-28T10:01:59.370Z,16.52
2022-10-28T10:05:02.639Z,16.67
2022-10-28T10:08:05.527Z,16.82
2022-10-28T10:11:17.693Z,17.01
2022-10-28T10:14:25.641Z,17.18
2022-10-28T10:17:34.592Z,17.36
2022-10-28T10:20:51.113Z,17.53
2022-10-28T10:23:52.664Z,17.69
2022-10-28T10:26:54.521Z,17.83
2022-10-28T10:29:58.051Z,17.95
2022-10-28T10:33:00.154Z,18.01
2022-10-28T10:36:10.770Z,18.03
2022-10-28T10:39:23.242Z,18.07
2022-10-28T10:42:25.579Z,18.08
2022-10-28T10:45:27.684Z,18.11
2022-10-28T10:48:32.312Z,18.14
2022-10-28T10:51:36.277Z,18.18
2022-10-28T10:54:42.368Z,18.22
2022-10-28T10:57:47.755Z,18.26
2022-10-28T11:00:52.283Z,18.34
2022-10-28T11:04:05.996Z,18.45
2022-10-28T11:07:15.851Z,18.54
2022-10-28T11:10:27.114Z,18.65
2022-10-28T11:13:30.051Z,18.77
2022-10-28T11:16:31.709Z,18.85
2022-10-28T11:19:37.646Z,18.88
2022-10-28T11:22:45.303Z,18.89
2022-10-28T11:25:54.264Z,18.90
2022-10-28T11:29:14.778Z,18.91
2022-10-28T11:32:25.410Z,18.94
2022-10-28T11:35:58.879Z,18.99
2022-10-28T11:39:25.968Z,19.07
2022-10-28T11:42:53.641Z,19.16
2022-10-28T11:46:19.713Z,19.28
2022-10-28T11:49:45.898Z,19.43
2022-10-28T11:53:06.846Z,19.50
2022-10-28T11:56:08.710Z,19.53
2022-10-28T11:59:25.311Z,19.56
2022-10-28T12:03:03.695Z,19.58
2022-10-28T12:06:37.886Z,19.63
2022-10-28T12:09:49.332Z,19.68
2022-10-28T12:13:03.913Z,19.68
2022-10-28T12:16:17.450Z,19.72
2022-10-28T12:19:38.624Z,19.77
2022-10-28T12:22:48.131Z,19.75
2022-10-28T12:25:54.875Z,19.70
2022-10-28T12:29:01.262Z,19.65
2022-10-28T12:32:18.142Z,19.61
2022-10-28T12:35:31.516Z,19.56
2022-10-28T12:38:58.667Z,19.48
2022-10-28T12:42:12.196Z,19.42
2022-10-28T12:45:17.804Z,19.38
2022-10-28T12:48:19.308Z,19.33
2022-10-28T12:51:30.559Z,19.31
2022-10-28T12:54:53.646Z,19.27
2022-10-28T12:58:22.257Z,19.25
2022-10-28T13:01:27.551Z,19.21
2022-10-28T13:04:29.736Z,19.17
2022-10-28T13:07:58.768Z,19.15
2022-10-28T13:11:15.829Z,19.13
2022-10-28T13:14:55.134Z,19.10
2022-10-28T13:18:24.971Z,19.05
2022-10-28T13:22:03.415Z,19.03
2022-10-28T13:25:45.865Z,19.00
2022-10-28T13:28:54.156Z,18.98
2022-10-28T13:31:56.366Z,18.98
2022-10-28T13:34:59.687Z,18.99
2022-10-28T13:38:02.679Z,18.99
2022-10-28T13:41:04.167Z,18.97
2022-10-28T13:44:08.739Z,18.95
2022-10-28T13:47:12.982Z,18.95
2022-10-28T13:50:21.632Z,18.93
2022-10-28T13:53:28.857Z,18.92
2022-10-28T13:56:38.555Z,18.91
2022-10-28T14:00:22.283Z,18.89
2022-10-28T14:03:27.995Z,18.86
2022-10-28T14:06:35.124Z,18.83
2022-10-28T14:09:41.120Z,18.80
2022-10-28T14:12:46.139Z,18.78
2022-10-28T14:15:49.572Z,18.75
2022-10-28T14:19:10.681Z,18.74
2022-10-28T14:22:12.266Z,18.71
2022-10-28T14:25:58.243Z,18.68
2022-10-28T14:28:59.877Z,18.65
2022-10-28T14:32:33.516Z,18.62
2022-10-28T14:35:44.283Z,18.57
2022-10-28T14:39:07.243Z,18.55
2022-10-28T14:42:47.782Z,18.51
2022-10-28T14:46:13.757Z,18.46
2022-10-28T14:49:27.392Z,18.42
2022-10-28T14:52:31.441Z,18.39
2022-10-28T14:55:35.069Z,18.35
2022-10-28T14:58:42.252Z,18.34
2022-10-28T15:02:01.216Z,18.31
2022-10-28T15:05:15.198Z,18.27
2022-10-28T15:08:17.920Z,18.24
2022-10-28T15:11:20.246Z,18.22
2022-10-28T15:14:26.191Z,18.20
2022-10-28T15:17:31.071Z,18.16
2022-10-28T15:20:35.488Z,18.11
2022-10-28T15:23:37.126Z,18.07
2022-10-28T15:26:38.865Z,18.05
2022-10-28T15:29:42.588Z,18.01
2022-10-28T15:32:44.104Z,18.00
2022-10-28T15:35:47.250Z,17.97
2022-10-28T15:38:50.843Z,17.94
2022-10-28T15:41:56.412Z,17.90
2022-10-28T15:44:59.040Z,17.87
2022-10-28T15:48:02.122Z,17.85
2022-10-28T15:51:12.928Z,17.81
2022-10-28T15:54:20.566Z,17.80
2022-10-28T15:57:30.611Z,17.78
2022-10-28T16:00:34.063Z,17.77
2022-10-28T16:03:48.063Z,17.86
2022-10-28T16:06:55.678Z,17.83
2022-10-28T16:09:57.882Z,17.80
2022-10-28T16:12:59.879Z,17.79
2022-10-28T16:16:09.659Z,17.78
2022-10-28T16:19:27.432Z,17.76
2022-10-28T16:22:31.198Z,17.75
2022-10-28T16:25:32.739Z,17.74
2022-10-28T16:28:34.347Z,17.72
2022-10-28T16:31:35.948Z,17.72
2022-10-28T16:34:37.490Z,17.72
2022-10-28T16:37:44.477Z,17.74
2022-10-28T16:40:51.971Z,17.74
2022-10-28T16:43:56.000Z,17.73
2022-10-28T16:46:57.684Z,17.74
2022-10-28T16:49:59.397Z,17.72
2022-10-28T16:53:00.967Z,17.72
2022-10-28T16:56:02.614Z,17.71
2022-10-28T16:59:04.299Z,17.70
2022-10-28T17:02:33.128Z,17.70
2022-10-28T17:05:34.992Z,17.68
2022-10-28T17:09:01.219Z,17.68
2022-10-28T17:11:58.132Z,17.66
2022-10-28T17:15:01.068Z,17.67
2022-10-28T17:18:03.040Z,17.64
2022-10-28T17:21:04.675Z,17.64
2022-10-28T17:24:06.692Z,17.64
2022-10-28T17:27:08.579Z,17.62
2022-10-28T17:30:10.767Z,17.61
2022-10-28T17:33:12.359Z,17.60
2022-10-28T17:36:13.928Z,17.62
2022-10-28T17:39:18.622Z,17.62
2022-10-28T17:42:22.370Z,17.61
2022-10-28T17:45:23.911Z,17.60
2022-10-28T17:48:25.441Z,17.58
2022-10-28T17:51:27.599Z,17.57
2022-10-28T17:54:29.163Z,17.55
2022-10-28T17:57:31.008Z,17.52
2022-10-28T18:00:32.516Z,17.51
2022-10-28T18:03:38.374Z,17.50
2022-10-28T18:06:40.095Z,17.49
2022-10-28T18:09:42.224Z,17.48
2022-10-28T18:12:43.764Z,17.47
2022-10-28T18:15:45.827Z,17.51
2022-10-28T18:18:47.416Z,17.53
2022-10-28T18:21:49.329Z,17.55
2022-10-28T18:24:50.900Z,17.58
2022-10-28T18:27:52.579Z,17.58
2022-10-28T18:30:54.076Z,17.58
2022-10-28T18:33:56.617Z,17.58
2022-10-28T18:36:58.196Z,17.59
2022-10-28T18:39:59.804Z,17.58
2022-10-28T18:43:01.320Z,17.57
2022-10-28T18:46:02.909Z,17.55
2022-10-28T18:49:05.519Z,17.52
2022-10-28T18:52:07.114Z,17.49
2022-10-28T18:55:09.013Z,17.50
2022-10-28T18:58:14.373Z,17.48
2022-10-28T19:01:18.663Z,17.45
2022-10-28T19:04:20.255Z,17.42
2022-10-28T19:07:21.754Z,17.37
2022-10-28T19:10:23.323Z,17.36
2022-10-28T19:13:25.156Z,17.34
2022-10-28T19:16:28.047Z,17.30
2022-10-28T19:19:29.614Z,17.30
2022-10-28T19:22:32.248Z,17.27
2022-10-28T19:25:33.881Z,17.23
2022-10-28T19:28:44.063Z,17.18
2022-10-28T19:31:45.722Z,17.14
2022-10-28T19:34:47.262Z,17.11
2022-10-28T19:37:52.468Z,17.11
2022-10-28T19:40:53.977Z,17.06
2022-10-28T19:43:58.478Z,17.04
2022-10-28T19:47:00.573Z,17.03
2022-10-28T19:50:02.084Z,17.07
2022-10-28T19:53:03.644Z,17.13
2022-10-28T19:56:05.366Z,17.13
2022-10-28T19:59:07.346Z,17.13
2022-10-28T20:02:11.718Z,17.10
2022-10-28T20:05:13.482Z,17.06
2022-10-28T20:08:17.195Z,17.02
2022-10-28T20:11:24.942Z,16.99
2022-10-28T20:14:28.158Z,16.96
2022-10-28T20:17:29.774Z,16.95
2022-10-28T20:20:31.306Z,16.91
2022-10-28T20:23:35.897Z,16.88
2022-10-28T20:26:38.912Z,16.86
2022-10-28T20:29:40.775Z,16.82
2022-10-28T20:32:42.319Z,16.78
2022-10-28T20:35:43.846Z,16.75
2022-10-28T20:38:45.371Z,16.71
2022-10-28T20:41:48.479Z,16.68
2022-10-28T20:44:50.014Z,16.66
2022-10-28T20:47:52.910Z,16.64
2022-10-28T20:50:59.965Z,16.63
2022-10-28T20:54:02.142Z,16.61
2022-10-28T20:57:03.798Z,16.61
2022-10-28T21:00:08.090Z,16.61
2022-10-28T21:03:10.895Z,16.60
2022-10-28T21:06:15.409Z,16.59
2022-10-28T21:09:17.243Z,16.57
2022-10-28T21:12:18.749Z,16.54
2022-10-28T21:15:20.291Z,16.51
2022-10-28T21:18:21.886Z,16.48
2022-10-28T21:21:24.297Z,16.46
2022-10-28T21:24:25.861Z,16.44
2022-10-28T21:27:27.599Z,16.43
2022-10-28T21:30:29.155Z,16.38
2022-10-28T21:33:31.397Z,16.34
2022-10-28T21:36:32.922Z,16.31
2022-10-28T21:39:35.923Z,16.26
2022-10-28T21:42:37.471Z,16.24
2022-10-28T21:45:38.984Z,16.20
2022-10-28T21:48:40.843Z,16.17
2022-10-28T21:51:42.427Z,16.16
2022-10-28T21:54:44.384Z,16.13
2022-10-28T21:57:45.869Z,16.13
2022-10-28T22:00:47.472Z,16.13
2022-10-28T22:03:50.071Z,16.11
2022-10-28T22:06:51.638Z,16.10
2022-10-28T22:09:53.163Z,16.10
2022-10-28T22:12:55.461Z,16.10
2022-10-28T22:16:08.336Z,16.19
2022-10-28T22:19:13.878Z,16.17
2022-10-28T22:22:15.433Z,16.15
2022-10-28T22:25:16.970Z,16.10
2022-10-28T22:28:18.497Z,16.04
2022-10-28T22:31:26.053Z,16.02
2022-10-28T22:34:27.568Z,15.99
2022-10-28T22:37:29.131Z,15.96
2022-10-28T22:40:30.694Z,15.92
2022-10-28T22:43:32.535Z,15.90
2022-10-28T22:46:36.667Z,15.86
2022-10-28T22:49:38.279Z,15.84
2022-10-28T22:52:39.855Z,15.83
2022-10-28T22:55:41.382Z,15.77
2022-10-28T22:58:43.075Z,15.75
2022-10-28T23:01:44.677Z,15.70
2022-10-28T23:04:46.298Z,15.66
2022-10-28T23:07:47.837Z,15.61
2022-10-28T23:10:49.371Z,15.59
2022-10-28T23:13:52.881Z,15.55
2022-10-28T23:16:54.442Z,15.53
2022-10-28T23:19:55.992Z,15.49
2022-10-28T23:22:57.662Z,15.46
2022-10-28T23:25:59.454Z,15.43
2022-10-28T23:29:01.012Z,15.40
2022-10-28T23:32:02.544Z,15.37
2022-10-28T23:35:05.254Z,15.33
2022-10-28T23:38:09.079Z,15.29
2022-10-28T23:41:15.413Z,15.25
2022-10-28T23:44:17.070Z,15.21
2022-10-28T23:47:18.660Z,15.17
2022-10-28T23:50:20.197Z,15.13
2022-10-28T23:53:22.677Z,15.11
2022-10-28T23:56:24.291Z,15.07
2022-10-28T23:59:25.803Z,15.03
